Time;durP1;ratioP1;P1;durP2;ratioP2;P2;SDS_P1;SDS_P2;PMS_P1;PMS_P2;Temp;Humidity;BMP_temperature;BMP_pressure;BME280_temperature;BME280_humidity;BME280_pressure;Samples;Min_cycle;Max_cycle;Signal;HPM_P1;HPM_P2
2023/10/11 00:02:59;;;;;;;7.07;5.60;;;14.70;99.90;;;;;;4974906;28;20297;-70
2023/10/11 00:05:28;;;;;;;6.70;5.73;;;14.70;99.90;;;;;;4975535;28;20597;-69
2023/10/11 00:07:57;;;;;;;9.43;6.13;;;14.60;99.90;;;;;;4975063;28;20174;-70
2023/10/11 00:10:23;;;;;;;9.10;5.57;;;14.60;99.90;;;;;;4974999;28;20485;-70
2023/10/11 00:12:50;;;;;;;9.33;5.93;;;14.70;99.90;;;;;;4974483;28;20304;-69
2023/10/11 00:15:16;;;;;;;7.30;5.97;;;14.70;99.90;;;;;;4975058;28;20182;-70
2023/10/11 00:17:46;;;;;;;9.63;5.87;;;14.70;99.90;;;;;;4974857;28;20200;-70
2023/10/11 00:22:57;;;;;;;9.57;5.83;;;14.80;99.90;;;;;;4974280;28;20220;-69
2023/10/11 00:25:27;;;;;;;10.00;5.77;;;14.70;99.90;;;;;;4975081;28;20174;-70
2023/10/11 00:27:53;;;;;;;8.80;5.70;;;14.70;99.90;;;;;;4974941;28;20264;-70
2023/10/11 00:30:21;;;;;;;6.70;5.10;;;14.70;99.90;;;;;;4974711;28;20189;-70
2023/10/11 00:32:47;;;;;;;10.73;5.90;;;14.70;99.90;;;;;;4974804;28;20182;-70
2023/10/11 00:35:18;;;;;;;8.53;5.27;;;14.60;99.90;;;;;;4974525;28;20323;-70
2023/10/11 00:37:51;;;;;;;10.03;5.63;;;14.60;99.90;;;;;;4974539;28;20198;-69
2023/10/11 00:40:32;;;;;;;10.03;5.30;;;14.60;99.90;;;;;;4974195;28;20197;-70
2023/10/11 00:42:59;;;;;;;7.53;5.27;;;14.50;99.90;;;;;;4974065;28;20201;-70
2023/10/11 00:45:31;;;;;;;8.60;6.07;;;14.50;99.90;;;;;;4974410;28;20224;-70
2023/10/11 00:47:59;;;;;;;8.47;6.00;;;14.50;99.90;;;;;;4974053;28;20230;-70
2023/10/11 00:50:30;;;;;;;6.33;5.10;;;14.50;99.90;;;;;;4974310;28;20669;-70
2023/10/11 00:52:57;;;;;;;8.77;5.90;;;14.50;99.90;;;;;;4973978;28;20543;-70
2023/10/11 00:55:23;;;;;;;8.87;5.70;;;14.50;99.90;;;;;;4974443;28;20178;-70
2023/10/11 00:57:50;;;;;;;6.77;5.57;;;14.40;99.90;;;;;;4973743;28;20669;-70
2023/10/11 01:00:21;;;;;;;11.83;6.10;;;14.40;99.90;;;;;;4974223;28;20189;-70
2023/10/11 01:02:48;;;;;;;9.07;5.60;;;14.40;99.90;;;;;;4973952;28;20208;-71
2023/10/11 01:05:14;;;;;;;7.83;5.97;;;14.40;99.90;;;;;;4974458;28;20535;-70
2023/10/11 01:07:40;;;;;;;10.40;5.57;;;14.30;99.90;;;;;;4973978;28;20186;-70
2023/10/11 01:10:07;;;;;;;8.30;6.17;;;14.40;99.90;;;;;;4973952;28;20205;-70
2023/10/11 01:12:33;;;;;;;7.70;6.23;;;14.30;99.90;;;;;;4973549;28;20178;-71
2023/10/11 01:14:59;;;;;;;9.23;6.30;;;14.40;99.90;;;;;;4973713;28;20177;-71
2023/10/11 01:17:32;;;;;;;7.57;5.93;;;14.40;99.90;;;;;;4973496;28;20200;-71
2023/10/11 01:19:59;;;;;;;8.77;6.03;;;14.50;99.90;;;;;;4973753;28;20570;-70
2023/10/11 01:22:28;;;;;;;10.20;5.70;;;14.40;99.90;;;;;;4973190;28;20185;-70
2023/10/11 01:24:55;;;;;;;9.63;6.50;;;14.40;99.90;;;;;;4973159;28;20178;-69
2023/10/11 01:27:30;;;;;;;7.33;5.70;;;14.30;99.90;;;;;;4973674;28;20629;-69
2023/10/11 01:29:57;;;;;;;8.57;6.03;;;14.30;99.90;;;;;;4973587;28;20664;-70
2023/10/11 01:32:23;;;;;;;9.53;5.77;;;14.20;99.90;;;;;;4972704;28;20170;-70
2023/10/11 01:34:49;;;;;;;7.07;6.37;;;14.20;99.90;;;;;;4973391;28;20646;-70
2023/10/11 01:37:14;;;;;;;13.77;6.30;;;14.20;99.90;;;;;;4973375;28;20185;-70
2023/10/11 01:39:40;;;;;;;13.17;6.20;;;14.30;99.90;;;;;;4973145;28;20265;-70
2023/10/11 01:42:05;;;;;;;8.80;5.90;;;14.40;99.90;;;;;;4973331;28;20280;-70
2023/10/11 01:44:33;;;;;;;10.40;5.97;;;14.60;99.90;;;;;;4972891;28;20205;-70
2023/10/11 01:47:01;;;;;;;9.90;6.00;;;15.00;99.90;;;;;;4973197;28;20270;-70
2023/10/11 01:49:26;;;;;;;14.20;5.80;;;15.20;99.90;;;;;;4973409;28;20181;-69
2023/10/11 01:51:52;;;;;;;10.90;5.17;;;15.50;99.90;;;;;;4973111;28;20634;-71
2023/10/11 01:54:22;;;;;;;7.97;5.57;;;15.80;99.90;;;;;;4973073;28;20674;-70
2023/10/11 01:56:48;;;;;;;7.20;4.57;;;16.00;99.90;;;;;;4973318;28;20525;-70
2023/10/11 01:59:15;;;;;;;12.57;5.67;;;16.30;99.90;;;;;;4972979;28;20590;-70
2023/10/11 02:01:43;;;;;;;8.27;5.63;;;16.40;99.90;;;;;;4973212;28;20575;-70
2023/10/11 02:04:16;;;;;;;11.10;5.37;;;16.60;99.90;;;;;;4972804;28;20219;-70
2023/10/11 02:06:42;;;;;;;7.10;4.73;;;16.70;99.90;;;;;;4972760;28;20183;-70
2023/10/11 02:09:11;;;;;;;6.57;4.97;;;16.80;99.90;;;;;;4972969;28;20700;-70
2023/10/11 02:11:41;;;;;;;9.97;5.50;;;16.80;99.90;;;;;;4973117;28;20628;-70
2023/10/11 02:14:07;;;;;;;7.73;5.03;;;16.80;99.90;;;;;;4972571;28;20189;-70
2023/10/11 02:16:33;;;;;;;8.80;5.13;;;16.90;99.90;;;;;;4972964;28;20180;-70
2023/10/11 02:18:59;;;;;;;9.67;5.70;;;17.00;99.90;;;;;;4972981;28;20596;-70
2023/10/11 02:21:25;;;;;;;9.77;6.23;;;17.20;99.90;;;;;;4973037;28;20205;-70
2023/10/11 02:23:51;;;;;;;11.47;5.30;;;17.20;99.90;;;;;;4972528;28;20692;-70
2023/10/11 02:26:16;;;;;;;13.60;5.50;;;17.20;99.90;;;;;;4972942;28;20177;-70
2023/10/11 02:28:46;;;;;;;6.13;5.33;;;17.20;99.90;;;;;;4972186;28;20243;-71
2023/10/11 02:31:19;;;;;;;13.23;5.70;;;17.20;99.90;;;;;;4972774;28;20197;-70
2023/10/11 02:33:46;;;;;;;15.63;6.00;;;17.30;99.90;;;;;;4972575;28;20208;-70
2023/10/11 02:36:18;;;;;;;9.90;4.70;;;17.30;99.90;;;;;;4972970;28;20185;-70
2023/10/11 02:38:47;;;;;;;11.83;5.40;;;17.30;99.90;;;;;;4972560;28;20550;-70
2023/10/11 02:41:25;;;;;;;9.73;5.70;;;17.30;99.90;;;;;;4972676;28;20289;-71
2023/10/11 02:43:57;;;;;;;13.27;5.40;;;17.30;99.90;;;;;;4972413;28;20215;-71
2023/10/11 02:46:24;;;;;;;9.93;5.20;;;17.30;99.90;;;;;;4972561;28;20240;-70
2023/10/11 02:48:54;;;;;;;9.67;4.63;;;17.20;99.90;;;;;;4972520;28;20542;-71
2023/10/11 02:51:24;;;;;;;8.10;5.20;;;17.20;99.90;;;;;;4972519;28;20209;-69
2023/10/11 02:53:52;;;;;;;8.00;5.00;;;17.20;99.90;;;;;;4972295;28;20541;-70
2023/10/11 02:56:18;;;;;;;8.17;5.17;;;17.10;99.90;;;;;;4972800;28;20182;-69
2023/10/11 02:58:44;;;;;;;11.50;5.23;;;17.00;99.90;;;;;;4972272;28;20263;-69
2023/10/11 03:01:20;;;;;;;10.57;5.27;;;17.00;99.90;;;;;;4972458;28;20280;-70
2023/10/11 03:03:47;;;;;;;9.87;5.87;;;17.10;99.90;;;;;;4972170;28;20201;-70
2023/10/11 03:06:13;;;;;;;8.67;5.80;;;17.10;99.90;;;;;;4972389;28;20184;-70
2023/10/11 03:08:40;;;;;;;8.70;5.33;;;17.10;99.90;;;;;;4972176;28;20178;-69
2023/10/11 03:11:09;;;;;;;8.93;5.73;;;17.10;99.90;;;;;;4972446;28;20259;-70
2023/10/11 03:13:43;;;;;;;11.03;5.70;;;17.00;99.90;;;;;;4972327;28;20264;-70
2023/10/11 03:16:17;;;;;;;8.10;5.33;;;17.00;99.90;;;;;;4972525;28;20192;-70
2023/10/11 03:18:46;;;;;;;11.73;5.27;;;16.90;99.90;;;;;;4972419;28;20298;-69
2023/10/11 03:21:17;;;;;;;12.83;5.30;;;16.90;99.90;;;;;;4972530;28;20347;-70
2023/10/11 03:24:03;;;;;;;10.97;5.57;;;16.80;99.90;;;;;;4971899;28;20221;-69
2023/10/11 03:28:57;;;;;;;11.07;5.50;;;16.70;99.90;;;;;;4972497;28;20188;-70
2023/10/11 03:31:43;;;;;;;9.17;5.77;;;16.70;99.90;;;;;;4972323;28;20193;-69
2023/10/11 03:34:12;;;;;;;8.03;5.03;;;16.70;99.90;;;;;;4971928;28;20228;-69
2023/10/11 03:36:52;;;;;;;9.60;4.90;;;16.60;99.90;;;;;;4971855;28;20553;-69
2023/10/11 03:44:45;;;;;;;12.23;5.67;;;16.40;99.90;;;;;;4971822;28;20209;-70
2023/10/11 03:47:14;;;;;;;7.70;5.37;;;16.20;99.90;;;;;;4972118;28;20681;-69
2023/10/11 03:52:22;;;;;;;9.73;5.87;;;15.90;99.90;;;;;;4971933;28;20174;-70
2023/10/11 03:55:05;;;;;;;9.27;5.17;;;15.70;99.90;;;;;;4970528;28;20181;-69
2023/10/11 03:57:37;;;;;;;11.13;5.57;;;15.50;99.90;;;;;;4975667;28;20197;-69
2023/10/11 04:00:25;;;;;;;12.20;6.10;;;15.30;99.90;;;;;;4973814;28;20217;-69
2023/10/11 04:02:56;;;;;;;12.77;5.33;;;15.10;99.90;;;;;;4974991;28;20256;-70
2023/10/11 04:05:22;;;;;;;9.03;5.73;;;15.00;99.90;;;;;;4975323;28;20182;-70
2023/10/11 04:07:48;;;;;;;12.10;5.50;;;15.00;99.90;;;;;;4975232;28;20224;-69
2023/10/11 04:10:20;;;;;;;11.47;5.53;;;15.10;99.90;;;;;;4975263;28;20559;-70
2023/10/11 04:12:46;;;;;;;10.30;5.33;;;15.20;99.90;;;;;;4975173;28;20185;-69
2023/10/11 04:15:24;;;;;;;10.33;6.23;;;15.30;99.90;;;;;;4975078;28;20180;-69
2023/10/11 04:17:50;;;;;;;7.77;5.60;;;15.30;99.90;;;;;;4974933;28;20173;-69
2023/10/11 04:20:21;;;;;;;9.07;5.63;;;15.30;99.90;;;;;;4955860;28;20198;-69
2023/10/11 04:22:53;;;;;;;12.63;6.53;;;15.20;99.90;;;;;;4955502;28;20210;-70
2023/10/11 04:25:22;;;;;;;12.80;6.17;;;14.90;99.90;;;;;;4955855;28;20179;-69
2023/10/11 04:27:55;;;;;;;9.50;6.50;;;14.80;99.90;;;;;;4955604;28;20260;-69
2023/10/11 04:30:26;;;;;;;8.63;6.03;;;14.60;99.90;;;;;;4955679;28;20301;-69
2023/10/11 04:32:56;;;;;;;9.67;6.03;;;14.40;99.90;;;;;;4968976;28;20280;-69
2023/10/11 04:35:25;;;;;;;11.47;6.47;;;14.20;99.90;;;;;;4974781;28;20196;-69
2023/10/11 04:37:54;;;;;;;9.70;6.23;;;14.10;99.90;;;;;;4974631;28;20182;-70
2023/10/11 04:40:38;;;;;;;11.73;6.70;;;13.90;99.90;;;;;;4975009;28;20299;-69
2023/10/11 04:43:05;;;;;;;11.40;7.00;;;13.70;99.90;;;;;;4974127;28;20205;-69
2023/10/11 04:45:44;;;;;;;11.47;6.57;;;13.60;99.90;;;;;;4974533;28;20190;-69
2023/10/11 04:48:14;;;;;;;10.33;6.30;;;13.50;99.90;;;;;;4974545;28;20187;-70
2023/10/11 04:50:47;;;;;;;13.70;6.53;;;13.40;99.90;;;;;;4973221;28;20248;-69
2023/10/11 04:53:17;;;;;;;9.27;6.07;;;13.40;99.90;;;;;;4974318;28;20182;-69
2023/10/11 04:55:59;;;;;;;10.80;6.50;;;13.30;99.90;;;;;;4974676;28;20206;-69
2023/10/11 04:58:42;;;;;;;9.13;6.00;;;13.30;99.90;;;;;;4974331;28;20217;-70
2023/10/11 05:01:11;;;;;;;12.90;5.83;;;13.30;99.90;;;;;;4975369;28;20796;-69
2023/10/11 05:03:38;;;;;;;9.73;6.00;;;13.20;99.90;;;;;;4974060;28;20269;-70
2023/10/11 05:06:13;;;;;;;17.63;7.30;;;13.20;99.90;;;;;;4973937;28;20205;-70
2023/10/11 05:08:51;;;;;;;11.40;6.63;;;13.20;99.90;;;;;;4974273;28;20232;-69
2023/10/11 05:11:32;;;;;;;13.13;6.40;;;13.20;99.90;;;;;;4974184;28;20204;-69
2023/10/11 05:14:26;;;;;;;9.07;5.87;;;13.20;99.90;;;;;;4974257;28;20188;-69
2023/10/11 05:16:58;;;;;;;14.93;6.40;;;13.10;99.90;;;;;;4973927;28;20174;-70
2023/10/11 05:19:27;;;;;;;13.10;5.93;;;13.10;99.90;;;;;;4973962;28;20189;-70
2023/10/11 05:21:53;;;;;;;11.43;6.23;;;13.10;99.90;;;;;;4973922;28;20177;-70
2023/10/11 05:27:36;;;;;;;8.97;6.37;;;13.10;99.90;;;;;;4974128;28;20185;-69
2023/10/11 05:32:49;;;;;;;11.90;6.47;;;13.20;99.90;;;;;;4954244;28;20591;-70
2023/10/11 05:51:39;;;;;;;25.87;7.77;;;13.60;99.90;;;;;;4973523;28;20208;-69
2023/10/11 05:54:07;;;;;;;20.77;7.43;;;13.60;99.90;;;;;;4973164;28;20170;-69
2023/10/11 05:56:34;;;;;;;17.77;6.70;;;13.60;99.90;;;;;;4972031;28;20481;-70
2023/10/11 05:59:04;;;;;;;9.93;6.00;;;13.60;99.90;;;;;;4972415;28;20209;-70
2023/10/11 06:01:31;;;;;;;13.17;6.27;;;13.70;99.90;;;;;;4973034;28;20545;-69
2023/10/11 06:04:02;;;;;;;9.67;5.83;;;13.70;99.90;;;;;;4972471;28;20232;-70
2023/10/11 06:06:37;;;;;;;13.53;6.17;;;13.70;99.90;;;;;;4972949;28;20176;-70
2023/10/11 06:09:05;;;;;;;15.90;7.83;;;13.80;99.90;;;;;;4972617;28;20172;-70
2023/10/11 06:11:37;;;;;;;13.50;7.00;;;13.80;99.90;;;;;;4972602;28;20415;-70
2023/10/11 06:14:04;;;;;;;13.03;6.47;;;13.90;99.90;;;;;;4972390;28;20189;-70
2023/10/11 06:16:37;;;;;;;12.43;5.73;;;14.00;99.90;;;;;;4972851;28;20178;-69
2023/10/11 06:19:16;;;;;;;10.70;5.90;;;14.20;99.90;;;;;;4972112;28;20170;-70
2023/10/11 06:24:38;;;;;;;11.17;6.37;;;14.30;99.90;;;;;;4972145;28;20205;-70
2023/10/11 06:28:09;;;;;;;11.70;6.67;;;14.40;99.90;;;;;;4972515;28;20634;-70
2023/10/11 06:29:57;;;;;;;8.13;5.70;;;14.50;99.90;;;;;;4972219;28;20677;-69
2023/10/11 06:32:24;;;;;;;12.90;6.63;;;14.50;99.90;;;;;;4972720;28;20173;-69
2023/10/11 06:34:50;;;;;;;11.23;5.60;;;14.70;99.90;;;;;;4972229;28;20208;-69
2023/10/11 06:37:34;;;;;;;13.93;6.50;;;14.70;99.90;;;;;;4972036;28;20642;-70
2023/10/11 06:40:13;;;;;;;11.00;6.50;;;14.80;99.90;;;;;;4972522;28;20204;-70
2023/10/11 06:42:40;;;;;;;12.80;6.20;;;14.90;99.90;;;;;;4972204;28;20173;-70
2023/10/11 06:45:16;;;;;;;9.13;6.30;;;15.00;99.90;;;;;;4971855;28;20178;-70
2023/10/11 06:47:43;;;;;;;13.83;6.50;;;15.10;99.90;;;;;;4972400;28;20184;-69
2023/10/11 06:50:12;;;;;;;8.00;5.60;;;15.30;99.90;;;;;;4972303;28;20193;-70
2023/10/11 06:52:45;;;;;;;13.00;6.47;;;15.40;99.90;;;;;;4970789;28;20642;-69
2023/10/11 06:57:45;;;;;;;8.27;5.43;;;15.60;99.90;;;;;;4972489;28;20181;-70
2023/10/11 07:00:20;;;;;;;11.30;5.50;;;15.70;99.90;;;;;;4972152;28;20221;-70
2023/10/11 07:02:54;;;;;;;9.30;5.77;;;16.00;99.90;;;;;;4971791;28;20181;-70
2023/10/11 07:05:25;;;;;;;8.33;5.40;;;16.30;99.90;;;;;;4972172;28;20189;-70
2023/10/11 07:07:52;;;;;;;7.67;4.97;;;16.70;99.90;;;;;;4972168;28;20193;-70
2023/10/11 07:13:03;;;;;;;9.33;5.43;;;17.50;99.90;;;;;;4971560;28;20181;-70
2023/10/11 07:15:51;;;;;;;7.90;5.27;;;18.10;99.90;;;;;;4972228;28;20180;-70
2023/10/11 07:18:28;;;;;;;12.80;5.93;;;18.70;99.90;;;;;;4971965;28;20224;-70
2023/10/11 07:20:58;;;;;;;16.10;5.93;;;19.20;99.90;;;;;;4971554;28;20296;-70
2023/10/11 07:23:34;;;;;;;7.38;4.97;;;19.60;99.90;;;;;;4971779;28;20205;-70
2023/10/11 07:26:22;;;;;;;11.88;5.57;;;19.90;99.90;;;;;;4971940;28;20272;-70
2023/10/11 07:28:53;;;;;;;7.13;5.10;;;20.10;99.90;;;;;;4971570;28;20197;-70
2023/10/11 07:31:20;;;;;;;12.40;7.22;;;20.10;99.90;;;;;;4973864;28;20233;-70
2023/10/11 07:33:55;;;;;;;9.27;6.13;;;20.30;99.90;;;;;;4975668;28;20181;-70
2023/10/11 07:36:22;;;;;;;8.00;5.85;;;20.50;99.90;;;;;;4975595;28;21439;-71
2023/10/11 07:38:54;;;;;;;10.25;5.78;;;20.90;99.90;;;;;;4975541;28;20173;-71
2023/10/11 07:41:27;;;;;;;11.68;6.07;;;21.10;99.90;;;;;;4974897;28;20193;-71
2023/10/11 07:43:55;;;;;;;8.18;5.45;;;21.50;99.90;;;;;;4975411;28;20201;-71
2023/10/11 07:46:22;;;;;;;12.07;5.68;;;21.80;99.90;;;;;;4975140;28;20696;-70
2023/10/11 07:48:47;;;;;;;8.52;6.07;;;22.00;99.90;;;;;;4975321;28;20166;-71
2023/10/11 07:51:14;;;;;;;10.45;5.38;;;22.20;99.90;;;;;;4975429;28;20200;-70
2023/10/11 07:53:44;;;;;;;9.60;5.38;;;22.50;99.90;;;;;;4975113;28;20676;-71
2023/10/11 07:56:10;;;;;;;8.55;5.20;;;22.80;99.90;;;;;;4975384;28;20185;-71
2023/10/11 07:58:44;;;;;;;11.68;4.68;;;23.20;99.90;;;;;;4974752;28;20188;-70
2023/10/11 08:01:30;;;;;;;10.50;5.32;;;23.80;99.90;;;;;;4975149;28;20189;-71
2023/10/11 08:03:57;;;;;;;8.32;4.88;;;24.20;99.90;;;;;;4974921;28;20256;-71
2023/10/11 08:06:26;;;;;;;7.35;4.70;;;24.40;99.90;;;;;;4974920;28;20181;-71
2023/10/11 08:09:03;;;;;;;10.70;5.03;;;24.80;99.90;;;;;;4972998;28;20180;-71
2023/10/11 08:11:44;;;;;;;8.65;4.55;;;24.80;99.90;;;;;;4974743;28;20247;-70
2023/10/11 08:14:21;;;;;;;12.63;5.00;;;24.60;99.90;;;;;;4974402;28;20173;-71
2023/10/11 08:16:49;;;;;;;6.25;4.78;;;24.60;99.90;;;;;;4974811;28;20217;-70
2023/10/11 08:19:14;;;;;;;10.13;4.82;;;24.60;99.90;;;;;;4974572;28;20193;-71
2023/10/11 08:21:40;;;;;;;7.75;5.35;;;24.70;99.90;;;;;;4974914;28;20181;-71
2023/10/11 08:24:15;;;;;;;10.88;5.25;;;24.60;99.90;;;;;;4974332;28;20212;-71
2023/10/11 08:26:44;;;;;;;10.13;4.70;;;24.50;99.90;;;;;;4973381;28;20184;-71
2023/10/11 08:31:56;;;;;;;11.20;5.00;;;24.60;99.90;;;;;;4974602;28;20287;-71
2023/10/11 08:34:26;;;;;;;7.75;4.22;;;24.90;99.90;;;;;;4974029;28;20582;-70
2023/10/11 08:36:54;;;;;;;6.07;3.60;;;24.90;99.90;;;;;;4974018;28;20177;-71
2023/10/11 08:39:35;;;;;;;10.15;4.78;;;25.00;99.90;;;;;;4974261;28;20178;-71
2023/10/11 08:42:16;;;;;;;9.18;4.75;;;25.10;99.90;;;;;;4973782;28;20174;-71
2023/10/11 08:44:46;;;;;;;7.80;4.20;;;25.30;99.90;;;;;;4973324;28;20548;-71
2023/10/11 08:47:19;;;;;;;8.13;4.28;;;25.40;99.90;;;;;;4972730;28;20232;-71
2023/10/11 08:49:48;;;;;;;11.95;5.30;;;25.50;99.90;;;;;;4973966;28;20206;-71
2023/10/11 08:52:32;;;;;;;7.32;4.32;;;25.70;99.90;;;;;;4974015;28;20177;-71
2023/10/11 08:54:59;;;;;;;9.77;4.10;;;25.90;99.90;;;;;;4974078;28;20227;-71
2023/10/11 08:57:25;;;;;;;6.38;3.78;;;26.00;99.90;;;;;;4974220;28;20467;-71
2023/10/11 08:59:59;;;;;;;7.07;3.65;;;26.10;99.90;;;;;;4974149;28;20194;-71
2023/10/11 09:02:29;;;;;;;13.00;4.10;;;26.20;99.90;;;;;;4974109;28;20177;-71
2023/10/11 09:04:56;;;;;;;6.97;3.70;;;26.40;99.90;;;;;;4973019;28;20572;-71
2023/10/11 09:07:45;;;;;;;7.85;4.00;;;26.70;99.90;;;;;;4973859;28;20175;-71
2023/10/11 09:10:25;;;;;;;8.40;4.53;;;27.00;99.90;;;;;;4973874;28;20420;-71
2023/10/11 09:12:56;;;;;;;9.98;4.13;;;27.10;99.90;;;;;;4954768;28;20313;-71
2023/10/11 09:15:44;;;;;;;11.55;4.22;;;27.10;99.90;;;;;;4954431;28;20185;-71
2023/10/11 09:18:17;;;;;;;8.98;4.78;;;27.20;99.90;;;;;;4958184;28;20239;-71
2023/10/11 09:21:09;;;;;;;6.07;3.53;;;27.30;99.90;;;;;;4973897;28;20389;-71
2023/10/11 09:23:36;;;;;;;9.82;4.00;;;27.40;99.90;;;;;;4973445;28;20205;-71
2023/10/11 09:26:02;;;;;;;8.88;4.63;;;27.20;99.90;;;;;;4973599;28;20170;-71
2023/10/11 09:28:33;;;;;;;9.35;3.92;;;27.00;99.90;;;;;;4974035;28;20182;-70
2023/10/11 09:31:13;;;;;;;8.98;4.10;;;26.80;99.90;;;;;;4973316;28;20189;-71
2023/10/11 09:33:53;;;;;;;12.95;5.05;;;26.70;99.90;;;;;;4972697;28;20178;-71
2023/10/11 09:36:20;;;;;;;9.07;4.15;;;26.40;99.90;;;;;;4973357;28;20646;-71
2023/10/11 09:38:54;;;;;;;10.95;4.35;;;26.60;99.90;;;;;;4973421;28;20173;-70
2023/10/11 09:41:25;;;;;;;6.38;3.75;;;26.40;99.90;;;;;;4973229;28;20197;-72
2023/10/11 09:43:56;;;;;;;6.53;4.07;;;26.50;99.90;;;;;;4972907;28;20201;-70
2023/10/11 09:46:25;;;;;;;8.30;4.45;;;26.40;99.90;;;;;;4973291;28;20693;-71
2023/10/11 09:48:51;;;;;;;7.88;4.03;;;26.10;99.90;;;;;;4973064;28;20195;-71
2023/10/11 09:51:17;;;;;;;7.35;3.78;;;26.00;99.90;;;;;;4973436;28;20655;-72
2023/10/11 09:53:49;;;;;;;5.07;4.07;;;25.90;99.90;;;;;;4972417;28;20228;-69
2023/10/11 09:56:48;;;;;;;4.10;3.40;;;25.70;99.90;;;;;;4973177;28;20180;-70
2023/10/11 09:59:19;;;;;;;8.05;4.40;;;25.60;99.90;;;;;;4973082;28;20165;-71
2023/10/11 10:01:55;;;;;;;8.98;3.80;;;25.30;99.90;;;;;;4973090;28;20654;-70
2023/10/11 10:04:50;;;;;;;7.63;4.05;;;25.20;99.90;;;;;;4972837;28;20220;-71
2023/10/11 10:08:07;;;;;;;9.25;4.18;;;25.00;99.90;;;;;;4973376;28;20618;-71
2023/10/11 10:10:25;;;;;;;11.73;3.95;;;25.00;99.90;;;;;;4953348;28;20233;-71
2023/10/11 10:12:58;;;;;;;7.50;3.65;;;25.00;99.90;;;;;;4953691;28;20208;-71
2023/10/11 10:15:36;;;;;;;12.10;4.00;;;24.90;99.90;;;;;;4959699;28;20200;-72
2023/10/11 10:18:12;;;;;;;9.25;3.92;;;24.90;99.90;;;;;;4973169;28;20200;-71
2023/10/11 10:20:42;;;;;;;6.95;4.07;;;24.90;99.90;;;;;;4972942;28;20773;-70
2023/10/11 10:23:16;;;;;;;9.35;4.63;;;24.90;99.90;;;;;;4970563;28;20572;-72
2023/10/11 10:26:04;;;;;;;6.85;4.00;;;24.80;99.90;;;;;;4972843;28;20248;-69
2023/10/11 10:28:34;;;;;;;5.82;3.50;;;24.80;99.90;;;;;;4972763;28;20223;-70
2023/10/11 10:31:09;;;;;;;12.25;3.72;;;24.80;99.90;;;;;;4972365;28;20201;-72
2023/10/11 10:33:35;;;;;;;12.98;3.70;;;24.90;99.90;;;;;;4972569;28;20184;-71
2023/10/11 10:36:28;;;;;;;7.65;3.78;;;25.00;99.90;;;;;;4972843;28;20193;-71
2023/10/11 10:39:00;;;;;;;15.27;4.28;;;25.20;99.90;;;;;;4953216;28;20644;-71
2023/10/11 10:41:27;;;;;;;8.65;4.70;;;25.40;99.90;;;;;;4967961;28;20686;-72
2023/10/11 10:44:18;;;;;;;8.13;3.67;;;25.60;99.90;;;;;;4962300;28;20295;-73
2023/10/11 10:46:54;;;;;;;7.55;4.00;;;25.90;99.90;;;;;;4972148;28;20612;-73
2023/10/11 10:49:21;;;;;;;10.05;4.68;;;26.10;99.90;;;;;;4972377;28;20247;-72
2023/10/11 10:51:47;;;;;;;7.68;4.32;;;26.10;99.90;;;;;;4972155;28;20177;-71
2023/10/11 10:54:14;;;;;;;8.77;3.78;;;26.20;99.90;;;;;;4972405;28;20672;-71
2023/10/11 10:56:53;;;;;;;8.82;3.92;;;26.30;99.90;;;;;;4972602;28;20298;-72
2023/10/11 10:59:22;;;;;;;9.57;4.07;;;26.50;99.90;;;;;;4972159;28;20188;-71
2023/10/11 11:01:50;;;;;;;5.68;3.58;;;26.60;99.90;;;;;;4972185;28;20288;-71
2023/10/11 11:04:20;;;;;;;7.82;4.13;;;26.50;99.90;;;;;;4972816;28;20201;-71
2023/10/11 11:06:47;;;;;;;11.95;3.97;;;26.40;99.90;;;;;;4974292;28;20272;-72
2023/10/11 11:09:15;;;;;;;8.50;3.83;;;26.20;99.90;;;;;;4975900;28;20173;-71
2023/10/11 11:11:46;;;;;;;10.30;4.05;;;26.20;99.90;;;;;;4976244;28;20165;-72
2023/10/11 11:14:13;;;;;;;6.00;3.63;;;25.90;99.90;;;;;;4975831;28;20174;-71
2023/10/11 11:16:41;;;;;;;9.80;3.83;;;25.80;99.90;;;;;;4975810;28;20185;-72
2023/10/11 11:19:16;;;;;;;16.85;4.60;;;25.70;99.90;;;;;;4974135;28;20269;-71
2023/10/11 11:21:45;;;;;;;8.40;4.20;;;25.60;99.90;;;;;;4975900;28;20173;-72
2023/10/11 11:24:27;;;;;;;21.35;6.07;;;25.50;99.90;;;;;;4975504;28;20297;-72
2023/10/11 11:26:54;;;;;;;8.70;4.95;;;25.40;99.90;;;;;;4975698;28;20585;-72
2023/10/11 11:29:32;;;;;;;15.52;6.25;;;25.20;99.90;;;;;;4975746;28;20169;-72
2023/10/11 11:31:59;;;;;;;15.38;6.63;;;25.10;99.90;;;;;;4975483;28;20181;-72
2023/10/11 11:34:37;;;;;;;13.23;7.10;;;24.90;99.90;;;;;;4974115;28;20205;-72
2023/10/11 11:37:07;;;;;;;11.65;5.28;;;24.80;99.90;;;;;;4975926;28;20785;-71
2023/10/11 11:42:07;;;;;;;10.00;4.85;;;24.50;99.90;;;;;;4975262;28;20201;-71
2023/10/11 11:44:33;;;;;;;15.25;8.07;;;24.40;99.90;;;;;;4975370;28;20212;-72
2023/10/11 11:47:05;;;;;;;13.68;6.53;;;24.50;99.90;;;;;;4974292;28;20236;-72
2023/10/11 11:49:33;;;;;;;11.02;4.78;;;24.60;99.90;;;;;;4975329;28;20170;-71
2023/10/11 11:51:59;;;;;;;11.95;4.55;;;24.90;99.90;;;;;;4975472;28;20166;-72
2023/10/11 11:54:28;;;;;;;10.20;3.88;;;25.10;99.90;;;;;;4975116;28;20182;-72
2023/10/11 11:56:55;;;;;;;7.22;4.75;;;25.40;99.90;;;;;;4975269;28;20177;-72
2023/10/11 11:59:25;;;;;;;9.20;4.10;;;25.60;99.90;;;;;;4974923;28;20725;-72
2023/10/11 12:01:59;;;;;;;8.57;4.35;;;25.80;99.90;;;;;;4975682;28;20569;-71
2023/10/11 12:04:32;;;;;;;6.93;3.50;;;26.00;99.90;;;;;;4974972;28;20197;-70
2023/10/11 12:07:07;;;;;;;7.22;3.97;;;26.40;99.90;;;;;;4974886;28;20176;-71
2023/10/11 12:09:34;;;;;;;8.52;4.10;;;26.50;99.90;;;;;;4974992;28;20179;-70
2023/10/11 12:12:05;;;;;;;9.10;4.40;;;26.60;99.90;;;;;;4974917;28;20221;-72
2023/10/11 12:14:36;;;;;;;9.93;4.80;;;26.50;99.90;;;;;;4975055;28;20488;-73
2023/10/11 12:17:09;;;;;;;13.75;5.13;;;26.60;99.90;;;;;;4974235;28;20174;-72
2023/10/11 12:19:40;;;;;;;10.50;4.70;;;26.60;99.90;;;;;;4975091;28;20479;-73
2023/10/11 12:22:07;;;;;;;7.43;4.15;;;26.60;99.90;;;;;;4975029;28;20169;-71
2023/10/11 12:24:34;;;;;;;7.50;3.83;;;26.60;99.90;;;;;;4974437;28;20275;-71
2023/10/11 12:27:00;;;;;;;12.13;4.53;;;26.60;99.90;;;;;;4974716;28;20165;-70
2023/10/11 12:29:29;;;;;;;10.10;4.30;;;26.70;99.90;;;;;;4974764;28;20203;-71
2023/10/11 12:31:54;;;;;;;15.23;5.03;;;26.70;99.90;;;;;;4975076;28;20166;-71
2023/10/11 12:34:24;;;;;;;13.07;4.93;;;26.60;99.90;;;;;;4974482;28;20174;-71
2023/10/11 12:36:54;;;;;;;11.50;4.70;;;26.60;99.90;;;;;;4974518;28;20165;-71
2023/10/11 12:39:20;;;;;;;11.65;4.68;;;26.50;99.90;;;;;;4975051;28;20204;-72
2023/10/11 12:41:49;;;;;;;11.50;4.28;;;26.50;99.90;;;;;;4974646;28;20181;-71
2023/10/11 12:44:16;;;;;;;10.45;4.60;;;26.40;99.90;;;;;;4974247;28;20197;-73
2023/10/11 12:46:41;;;;;;;8.98;4.30;;;26.40;99.90;;;;;;4974416;28;20190;-71
2023/10/11 12:49:13;;;;;;;9.77;3.83;;;26.40;99.90;;;;;;4974444;28;20533;-71
2023/10/11 12:51:42;;;;;;;9.52;4.93;;;26.50;99.90;;;;;;4974480;28;20716;-71
2023/10/11 12:54:19;;;;;;;12.77;4.78;;;26.70;99.90;;;;;;4973762;28;20180;-71
2023/10/11 12:56:45;;;;;;;12.77;4.32;;;26.80;99.90;;;;;;4974465;28;20169;-70
2023/10/11 12:59:14;;;;;;;9.02;4.35;;;26.70;99.90;;;;;;4974294;28;20549;-70
2023/10/11 13:02:06;;;;;;;9.50;4.50;;;26.60;99.90;;;;;;4974003;28;20201;-69
2023/10/11 13:04:37;;;;;;;7.90;4.18;;;26.50;99.90;;;;;;4973449;28;20210;-72
2023/10/11 13:07:10;;;;;;;11.70;4.65;;;26.40;99.90;;;;;;4974156;28;20657;-71
2023/10/11 13:09:36;;;;;;;7.65;4.25;;;26.20;99.90;;;;;;4974071;28;21002;-71
2023/10/11 13:12:03;;;;;;;13.38;4.80;;;26.10;99.90;;;;;;4974038;28;20232;-71
2023/10/11 13:14:29;;;;;;;12.50;4.78;;;26.00;99.90;;;;;;4973976;28;20177;-70
2023/10/11 13:17:00;;;;;;;9.32;4.72;;;26.00;99.90;;;;;;4974257;28;20700;-70
2023/10/11 13:19:26;;;;;;;7.18;4.45;;;25.90;99.90;;;;;;4974138;28;20212;-71
2023/10/11 13:21:54;;;;;;;10.98;4.00;;;26.00;99.90;;;;;;4973922;28;20599;-71
2023/10/11 13:24:25;;;;;;;13.00;4.15;;;26.20;99.90;;;;;;4973670;28;20232;-71
2023/10/11 13:26:57;;;;;;;11.90;5.40;;;26.40;99.90;;;;;;4974072;28;20181;-72
2023/10/11 13:29:24;;;;;;;17.88;4.47;;;26.70;99.90;;;;;;4973821;28;20669;-71
2023/10/11 13:31:53;;;;;;;11.82;5.20;;;26.90;99.90;;;;;;4973217;28;20185;-71
2023/10/11 13:34:19;;;;;;;18.23;4.72;;;26.80;99.90;;;;;;4972098;28;20544;-71
2023/10/11 13:36:45;;;;;;;11.70;4.40;;;26.50;99.90;;;;;;4973951;28;20188;-71
2023/10/11 13:39:26;;;;;;;6.50;3.58;;;26.40;99.90;;;;;;4973669;28;20653;-71
2023/10/11 13:41:54;;;;;;;17.58;4.15;;;26.40;99.90;;;;;;4972297;28;20617;-71
2023/10/11 13:44:21;;;;;;;12.40;4.43;;;26.30;99.90;;;;;;4973228;28;20205;-72
2023/10/11 13:46:51;;;;;;;9.32;4.45;;;26.10;99.90;;;;;;4973311;28;20220;-72
2023/10/11 13:49:26;;;;;;;16.00;4.43;;;26.00;99.90;;;;;;4971687;28;20193;-71
2023/10/11 13:52:01;;;;;;;8.57;3.88;;;26.00;99.90;;;;;;4973205;28;20193;-72
2023/10/11 13:54:49;;;;;;;17.15;5.10;;;26.00;99.90;;;;;;4972327;28;20180;-71